Главная страница
METAR-TAF:

METAR-TAF

Аэропорты :

Burwash, Юкон, Канада

широта: 61-22N, долгота: 139-02W, высота над уровнем моря: 807 м

Текущие метеонаблюдения

Эта сводка был подготовлена 1 час и 6 минут назад, в 11:00 UTC
Ветер 15 Узел от восточно-юго-восточный
Температура 13°C
Влажность 54%
Давление 1012 hPa
Видимость: 14.5 км
ясное небо

METAR: CYDB 191100Z AUTO 12015KT 9SM CLR 13/04 A2989 RMK SLP135 DENSITY ALT 3000FT

Время: 05:06 (12:06 UTC)

Прогноз

Эта сводка был подготовлена 28 минут назад, в 11:38 UTC
Прогноз действительный с 19-го 12 UTC до 19-го 24 UTC
Ветер 15 Узел от восточно-юго-восточный
Видимость: 10 км
ясное небо

TAF: CYDB 191138Z 1912/1924 12015KT P6SM SKC RMK FCST BASED ON AUTO OBS. NXT FCST BY 191800Z

Метеонаблюдения и прогнозы для более 4000 аэропортов (сводки METAR и TAF).

Имеющиеся станции представлены на карте желтыми и красными точками.

Чтобы увидеть название станции, наведите на нее мышь.

Затем щелкните, чтобы увидеть метеонаблюдения и метеопрогнозы.

Управление картой: чтобы увеличить масштаб, щелкните зеленые кнопки с черным крестиком; чтобы уменьшить масштаб, щелкните зеленую кнопку с тире; для просмотра соседних карт щелкайте зеленые стрелки.


METAR-TAF: